Bishopton, United Kingdom
Current Conditions -  °F | °C
As of 6:50 PM on Thursday 23 Oct 2014 (Local Time) from EGPF Reporting Station
Light Rain Light Rain  
Wind Chill: 57°   Ceiling: 1400
Heat Index: 57°   Visibility: 6mi
Dew Point: 54°   Wind: 16mph
Humidity: 88%   Direction: 220°SW
Pressure: 29.68"   Gusts: NA
Location:  55.9°N, 4.5°W
Report Text: EGPF 231750Z AUTO 22014KT 9999 -RA BKN014/// //////TCU 14/12 Q1005
Loading
Personal Weather Stations






























Interactive Weather Map
Tropical Storm Tracking
New forecast layout! Learn more

10-Day Weather Forecast

Advertisements
Track Severe Weather on mobile